sensor_id;sensor_type;location;lat;lon;timestamp;P1;durP1;ratioP1;P2;durP2;ratioP2
76115;SDS011;64847;45.778;12.802;2023-04-06T00:01:10;3.17;;;2.53;;
76115;SDS011;64847;45.778;12.802;2023-04-06T00:03:36;2.30;;;2.10;;
76115;SDS011;64847;45.778;12.802;2023-04-06T00:06:02;3.73;;;2.40;;
76115;SDS011;64847;45.778;12.802;2023-04-06T00:08:27;2.50;;;2.30;;
76115;SDS011;64847;45.778;12.802;2023-04-06T00:10:53;2.70;;;2.50;;
76115;SDS011;64847;45.778;12.802;2023-04-06T00:13:19;2.90;;;2.70;;
76115;SDS011;64847;45.778;12.802;2023-04-06T00:15:45;2.40;;;2.30;;
76115;SDS011;64847;45.778;12.802;2023-04-06T00:18:10;2.53;;;2.33;;
76115;SDS011;64847;45.778;12.802;2023-04-06T00:20:36;2.40;;;2.17;;
76115;SDS011;64847;45.778;12.802;2023-04-06T00:23:01;2.40;;;2.20;;
76115;SDS011;64847;45.778;12.802;2023-04-06T00:25:26;2.10;;;2.00;;
76115;SDS011;64847;45.778;12.802;2023-04-06T00:27:52;2.30;;;2.10;;
76115;SDS011;64847;45.778;12.802;2023-04-06T00:30:18;2.27;;;2.13;;
76115;SDS011;64847;45.778;12.802;2023-04-06T00:32:44;2.30;;;2.10;;
76115;SDS011;64847;45.778;12.802;2023-04-06T00:35:10;3.60;;;2.33;;
76115;SDS011;64847;45.778;12.802;2023-04-06T00:37:35;2.57;;;2.37;;
76115;SDS011;64847;45.778;12.802;2023-04-06T00:40:01;2.37;;;2.17;;
76115;SDS011;64847;45.778;12.802;2023-04-06T00:42:27;2.50;;;2.23;;
76115;SDS011;64847;45.778;12.802;2023-04-06T00:44:53;2.83;;;2.63;;
76115;SDS011;64847;45.778;12.802;2023-04-06T00:47:20;2.90;;;2.60;;
76115;SDS011;64847;45.778;12.802;2023-04-06T00:49:46;2.60;;;2.40;;
76115;SDS011;64847;45.778;12.802;2023-04-06T00:52:12;2.70;;;2.50;;
76115;SDS011;64847;45.778;12.802;2023-04-06T00:54:37;4.10;;;2.47;;
76115;SDS011;64847;45.778;12.802;2023-04-06T00:57:03;2.87;;;2.63;;
76115;SDS011;64847;45.778;12.802;2023-04-06T00:59:29;2.30;;;2.10;;
76115;SDS011;64847;45.778;12.802;2023-04-06T01:01:55;2.77;;;2.37;;
76115;SDS011;64847;45.778;12.802;2023-04-06T01:04:20;2.43;;;2.27;;
76115;SDS011;64847;45.778;12.802;2023-04-06T01:06:48;3.30;;;2.53;;
76115;SDS011;64847;45.778;12.802;2023-04-06T01:09:14;2.70;;;2.50;;
76115;SDS011;64847;45.778;12.802;2023-04-06T01:11:39;5.47;;;2.70;;
76115;SDS011;64847;45.778;12.802;2023-04-06T01:14:05;3.03;;;2.47;;
76115;SDS011;64847;45.778;12.802;2023-04-06T01:16:30;2.53;;;2.33;;
76115;SDS011;64847;45.778;12.802;2023-04-06T01:18:56;2.60;;;2.20;;
76115;SDS011;64847;45.778;12.802;2023-04-06T01:21:21;2.80;;;2.37;;
76115;SDS011;64847;45.778;12.802;2023-04-06T01:23:47;2.97;;;2.30;;
76115;SDS011;64847;45.778;12.802;2023-04-06T01:26:12;2.30;;;2.20;;
76115;SDS011;64847;45.778;12.802;2023-04-06T01:28:38;2.80;;;2.43;;
76115;SDS011;64847;45.778;12.802;2023-04-06T01:31:06;3.00;;;2.40;;
76115;SDS011;64847;45.778;12.802;2023-04-06T01:33:32;2.43;;;2.23;;
76115;SDS011;64847;45.778;12.802;2023-04-06T01:35:57;4.13;;;2.60;;
76115;SDS011;64847;45.778;12.802;2023-04-06T01:38:23;3.10;;;2.70;;
76115;SDS011;64847;45.778;12.802;2023-04-06T01:40:48;2.40;;;2.30;;
76115;SDS011;64847;45.778;12.802;2023-04-06T01:43:13;2.70;;;2.27;;
76115;SDS011;64847;45.778;12.802;2023-04-06T01:45:39;4.10;;;2.53;;
76115;SDS011;64847;45.778;12.802;2023-04-06T01:48:05;2.40;;;2.20;;
76115;SDS011;64847;45.778;12.802;2023-04-06T01:50:31;2.47;;;2.27;;
76115;SDS011;64847;45.778;12.802;2023-04-06T01:52:57;2.50;;;2.30;;
76115;SDS011;64847;45.778;12.802;2023-04-06T01:55:22;2.40;;;2.20;;
76115;SDS011;64847;45.778;12.802;2023-04-06T01:57:48;2.70;;;2.50;;
76115;SDS011;64847;45.778;12.802;2023-04-06T02:00:14;3.33;;;2.63;;
76115;SDS011;64847;45.778;12.802;2023-04-06T02:02:40;2.40;;;2.20;;
76115;SDS011;64847;45.778;12.802;2023-04-06T02:05:05;2.53;;;2.33;;
76115;SDS011;64847;45.778;12.802;2023-04-06T02:07:31;2.83;;;2.63;;
76115;SDS011;64847;45.778;12.802;2023-04-06T02:09:56;2.40;;;2.20;;
76115;SDS011;64847;45.778;12.802;2023-04-06T02:12:22;3.77;;;2.53;;
76115;SDS011;64847;45.778;12.802;2023-04-06T02:14:48;2.53;;;2.33;;
76115;SDS011;64847;45.778;12.802;2023-04-06T02:17:14;2.40;;;2.20;;
76115;SDS011;64847;45.778;12.802;2023-04-06T02:19:40;2.47;;;2.27;;
76115;SDS011;64847;45.778;12.802;2023-04-06T02:22:05;2.73;;;2.40;;
76115;SDS011;64847;45.778;12.802;2023-04-06T02:24:31;2.93;;;2.53;;
76115;SDS011;64847;45.778;12.802;2023-04-06T02:26:56;2.50;;;2.30;;
76115;SDS011;64847;45.778;12.802;2023-04-06T02:29:22;2.50;;;2.30;;
76115;SDS011;64847;45.778;12.802;2023-04-06T02:31:47;2.53;;;2.37;;
76115;SDS011;64847;45.778;12.802;2023-04-06T02:34:12;3.30;;;2.50;;
76115;SDS011;64847;45.778;12.802;2023-04-06T02:36:43;3.13;;;2.50;;
76115;SDS011;64847;45.778;12.802;2023-04-06T02:39:09;2.17;;;2.07;;
76115;SDS011;64847;45.778;12.802;2023-04-06T02:41:35;2.57;;;2.37;;
76115;SDS011;64847;45.778;12.802;2023-04-06T02:44:00;2.80;;;2.60;;
76115;SDS011;64847;45.778;12.802;2023-04-06T02:46:26;2.60;;;2.40;;
76115;SDS011;64847;45.778;12.802;2023-04-06T02:48:51;4.43;;;2.90;;
76115;SDS011;64847;45.778;12.802;2023-04-06T02:51:17;3.10;;;2.90;;
76115;SDS011;64847;45.778;12.802;2023-04-06T02:53:42;2.73;;;2.50;;
76115;SDS011;64847;45.778;12.802;2023-04-06T02:56:07;2.80;;;2.60;;
76115;SDS011;64847;45.778;12.802;2023-04-06T02:58:33;2.73;;;2.53;;
76115;SDS011;64847;45.778;12.802;2023-04-06T03:00:58;3.90;;;2.80;;
76115;SDS011;64847;45.778;12.802;2023-04-06T03:03:24;3.80;;;2.57;;
76115;SDS011;64847;45.778;12.802;2023-04-06T03:05:49;2.80;;;2.60;;
76115;SDS011;64847;45.778;12.802;2023-04-06T03:08:14;3.40;;;2.77;;
76115;SDS011;64847;45.778;12.802;2023-04-06T03:10:40;2.63;;;2.43;;
76115;SDS011;64847;45.778;12.802;2023-04-06T03:13:05;2.87;;;2.67;;
76115;SDS011;64847;45.778;12.802;2023-04-06T03:15:31;3.03;;;2.60;;
76115;SDS011;64847;45.778;12.802;2023-04-06T03:17:57;2.80;;;2.50;;
76115;SDS011;64847;45.778;12.802;2023-04-06T03:20:22;4.20;;;2.70;;
76115;SDS011;64847;45.778;12.802;2023-04-06T03:22:48;3.43;;;2.80;;
76115;SDS011;64847;45.778;12.802;2023-04-06T03:25:13;3.17;;;2.87;;
76115;SDS011;64847;45.778;12.802;2023-04-06T03:27:39;3.43;;;3.13;;
76115;SDS011;64847;45.778;12.802;2023-04-06T03:30:04;3.20;;;2.90;;
76115;SDS011;64847;45.778;12.802;2023-04-06T03:32:30;3.23;;;2.93;;
76115;SDS011;64847;45.778;12.802;2023-04-06T03:34:56;3.70;;;3.03;;
76115;SDS011;64847;45.778;12.802;2023-04-06T03:37:21;3.40;;;3.00;;
76115;SDS011;64847;45.778;12.802;2023-04-06T03:39:46;3.87;;;3.00;;
76115;SDS011;64847;45.778;12.802;2023-04-06T03:42:12;3.10;;;2.90;;
76115;SDS011;64847;45.778;12.802;2023-04-06T03:44:37;2.90;;;2.70;;
76115;SDS011;64847;45.778;12.802;2023-04-06T03:47:03;3.40;;;3.03;;
76115;SDS011;64847;45.778;12.802;2023-04-06T03:49:28;3.30;;;2.87;;
76115;SDS011;64847;45.778;12.802;2023-04-06T03:51:53;4.47;;;3.20;;
76115;SDS011;64847;45.778;12.802;2023-04-06T03:54:21;5.93;;;3.30;;
76115;SDS011;64847;45.778;12.802;2023-04-06T03:56:46;3.73;;;3.43;;
76115;SDS011;64847;45.778;12.802;2023-04-06T03:59:12;3.67;;;3.20;;
76115;SDS011;64847;45.778;12.802;2023-04-06T04:01:37;3.33;;;3.03;;
76115;SDS011;64847;45.778;12.802;2023-04-06T04:04:04;3.33;;;3.03;;
76115;SDS011;64847;45.778;12.802;2023-04-06T04:06:30;3.40;;;3.10;;
76115;SDS011;64847;45.778;12.802;2023-04-06T04:08:55;4.70;;;3.60;;
76115;SDS011;64847;45.778;12.802;2023-04-06T04:11:21;3.37;;;3.00;;
76115;SDS011;64847;45.778;12.802;2023-04-06T04:13:46;3.63;;;3.30;;
76115;SDS011;64847;45.778;12.802;2023-04-06T04:16:11;3.60;;;3.30;;
76115;SDS011;64847;45.778;12.802;2023-04-06T04:18:37;3.67;;;3.07;;
76115;SDS011;64847;45.778;12.802;2023-04-06T04:21:02;3.17;;;2.93;;
76115;SDS011;64847;45.778;12.802;2023-04-06T04:23:28;3.27;;;2.97;;
76115;SDS011;64847;45.778;12.802;2023-04-06T04:25:53;3.70;;;3.40;;
76115;SDS011;64847;45.778;12.802;2023-04-06T04:28:18;4.40;;;3.07;;
76115;SDS011;64847;45.778;12.802;2023-04-06T04:30:44;3.30;;;3.03;;
76115;SDS011;64847;45.778;12.802;2023-04-06T04:33:10;3.50;;;3.20;;
76115;SDS011;64847;45.778;12.802;2023-04-06T04:35:36;3.23;;;2.90;;
76115;SDS011;64847;45.778;12.802;2023-04-06T04:38:01;4.50;;;3.57;;
76115;SDS011;64847;45.778;12.802;2023-04-06T04:40:27;3.40;;;3.10;;
76115;SDS011;64847;45.778;12.802;2023-04-06T04:42:52;4.80;;;3.20;;
76115;SDS011;64847;45.778;12.802;2023-04-06T04:45:17;4.60;;;3.20;;
76115;SDS011;64847;45.778;12.802;2023-04-06T04:47:43;3.70;;;3.40;;
76115;SDS011;64847;45.778;12.802;2023-04-06T04:50:08;4.30;;;3.00;;
76115;SDS011;64847;45.778;12.802;2023-04-06T04:52:34;3.53;;;3.23;;
76115;SDS011;64847;45.778;12.802;2023-04-06T04:54:59;3.70;;;3.40;;
76115;SDS011;64847;45.778;12.802;2023-04-06T04:57:25;3.20;;;3.00;;
76115;SDS011;64847;45.778;12.802;2023-04-06T04:59:50;3.57;;;3.00;;
76115;SDS011;64847;45.778;12.802;2023-04-06T05:02:16;3.80;;;3.00;;
76115;SDS011;64847;45.778;12.802;2023-04-06T05:04:42;3.53;;;3.23;;
76115;SDS011;64847;45.778;12.802;2023-04-06T05:07:08;3.30;;;3.00;;
76115;SDS011;64847;45.778;12.802;2023-04-06T05:09:34;3.17;;;2.83;;
76115;SDS011;64847;45.778;12.802;2023-04-06T05:11:59;3.67;;;3.13;;
76115;SDS011;64847;45.778;12.802;2023-04-06T05:14:26;3.80;;;3.10;;
76115;SDS011;64847;45.778;12.802;2023-04-06T05:16:51;3.37;;;3.10;;
76115;SDS011;64847;45.778;12.802;2023-04-06T05:19:17;4.23;;;3.47;;
76115;SDS011;64847;45.778;12.802;2023-04-06T05:21:42;4.87;;;3.20;;
76115;SDS011;64847;45.778;12.802;2023-04-06T05:24:08;4.07;;;3.23;;
76115;SDS011;64847;45.778;12.802;2023-04-06T05:26:33;3.60;;;3.27;;
76115;SDS011;64847;45.778;12.802;2023-04-06T05:28:59;5.23;;;3.80;;
76115;SDS011;64847;45.778;12.802;2023-04-06T05:31:24;3.70;;;3.10;;
76115;SDS011;64847;45.778;12.802;2023-04-06T05:33:50;5.00;;;3.37;;
76115;SDS011;64847;45.778;12.802;2023-04-06T05:36:15;4.07;;;3.67;;
76115;SDS011;64847;45.778;12.802;2023-04-06T05:38:41;5.23;;;3.90;;
76115;SDS011;64847;45.778;12.802;2023-04-06T05:41:06;4.47;;;4.07;;
76115;SDS011;64847;45.778;12.802;2023-04-06T05:43:32;3.97;;;3.67;;
76115;SDS011;64847;45.778;12.802;2023-04-06T05:45:57;3.93;;;3.63;;
76115;SDS011;64847;45.778;12.802;2023-04-06T05:48:22;3.30;;;3.00;;
76115;SDS011;64847;45.778;12.802;2023-04-06T05:50:48;4.43;;;3.20;;
76115;SDS011;64847;45.778;12.802;2023-04-06T05:53:18;3.90;;;3.60;;
76115;SDS011;64847;45.778;12.802;2023-04-06T05:55:43;4.07;;;3.07;;
76115;SDS011;64847;45.778;12.802;2023-04-06T05:58:09;5.30;;;3.10;;
76115;SDS011;64847;45.778;12.802;2023-04-06T06:00:35;3.70;;;3.40;;
76115;SDS011;64847;45.778;12.802;2023-04-06T06:03:00;3.80;;;3.50;;
76115;SDS011;64847;45.778;12.802;2023-04-06T06:05:29;4.13;;;3.30;;
76115;SDS011;64847;45.778;12.802;2023-04-06T06:07:54;3.23;;;2.93;;
76115;SDS011;64847;45.778;12.802;2023-04-06T06:10:20;3.47;;;2.93;;
76115;SDS011;64847;45.778;12.802;2023-04-06T06:12:45;3.20;;;2.90;;
76115;SDS011;64847;45.778;12.802;2023-04-06T06:15:11;3.57;;;3.27;;
76115;SDS011;64847;45.778;12.802;2023-04-06T06:17:36;3.83;;;2.97;;
76115;SDS011;64847;45.778;12.802;2023-04-06T06:20:04;3.57;;;3.27;;
76115;SDS011;64847;45.778;12.802;2023-04-06T06:22:31;3.80;;;3.50;;
76115;SDS011;64847;45.778;12.802;2023-04-06T06:24:56;3.90;;;3.43;;
76115;SDS011;64847;45.778;12.802;2023-04-06T06:27:21;4.27;;;3.70;;
76115;SDS011;64847;45.778;12.802;2023-04-06T06:29:47;4.73;;;3.97;;
76115;SDS011;64847;45.778;12.802;2023-04-06T06:32:12;4.07;;;3.60;;
76115;SDS011;64847;45.778;12.802;2023-04-06T06:34:38;3.97;;;3.63;;
76115;SDS011;64847;45.778;12.802;2023-04-06T06:37:03;5.50;;;3.90;;
76115;SDS011;64847;45.778;12.802;2023-04-06T06:39:29;3.90;;;3.60;;
76115;SDS011;64847;45.778;12.802;2023-04-06T06:41:55;4.20;;;3.90;;
76115;SDS011;64847;45.778;12.802;2023-04-06T06:44:21;3.30;;;3.10;;
76115;SDS011;64847;45.778;12.802;2023-04-06T06:46:47;3.50;;;3.30;;
76115;SDS011;64847;45.778;12.802;2023-04-06T06:49:12;3.30;;;3.00;;
76115;SDS011;64847;45.778;12.802;2023-04-06T06:51:39;3.55;;;2.90;;
76115;SDS011;64847;45.778;12.802;2023-04-06T06:54:04;3.03;;;2.83;;
76115;SDS011;64847;45.778;12.802;2023-04-06T06:56:30;4.22;;;3.30;;
76115;SDS011;64847;45.778;12.802;2023-04-06T06:58:55;3.15;;;2.95;;
76115;SDS011;64847;45.778;12.802;2023-04-06T07:01:21;3.55;;;3.22;;
76115;SDS011;64847;45.778;12.802;2023-04-06T07:03:46;3.10;;;2.90;;
76115;SDS011;64847;45.778;12.802;2023-04-06T07:06:12;2.85;;;2.65;;
76115;SDS011;64847;45.778;12.802;2023-04-06T07:08:37;3.25;;;2.90;;
76115;SDS011;64847;45.778;12.802;2023-04-06T07:11:02;3.20;;;2.90;;
76115;SDS011;64847;45.778;12.802;2023-04-06T07:13:28;3.30;;;3.10;;
76115;SDS011;64847;45.778;12.802;2023-04-06T07:15:54;3.55;;;2.92;;
76115;SDS011;64847;45.778;12.802;2023-04-06T07:18:19;2.95;;;2.75;;
76115;SDS011;64847;45.778;12.802;2023-04-06T07:20:45;3.47;;;3.17;;
76115;SDS011;64847;45.778;12.802;2023-04-06T07:23:11;3.00;;;2.80;;
76115;SDS011;64847;45.778;12.802;2023-04-06T07:25:36;3.35;;;3.00;;
76115;SDS011;64847;45.778;12.802;2023-04-06T07:28:02;3.13;;;2.92;;
76115;SDS011;64847;45.778;12.802;2023-04-06T07:30:28;3.00;;;2.80;;
76115;SDS011;64847;45.778;12.802;2023-04-06T07:32:54;3.15;;;2.95;;
76115;SDS011;64847;45.778;12.802;2023-04-06T07:35:23;3.08;;;2.88;;
76115;SDS011;64847;45.778;12.802;2023-04-06T07:37:49;3.03;;;2.83;;
76115;SDS011;64847;45.778;12.802;2023-04-06T07:40:15;3.20;;;2.90;;
76115;SDS011;64847;45.778;12.802;2023-04-06T07:42:40;2.75;;;2.55;;
76115;SDS011;64847;45.778;12.802;2023-04-06T07:45:06;2.80;;;2.60;;
76115;SDS011;64847;45.778;12.802;2023-04-06T07:47:32;3.03;;;2.83;;
76115;SDS011;64847;45.778;12.802;2023-04-06T07:49:58;2.88;;;2.67;;
76115;SDS011;64847;45.778;12.802;2023-04-06T07:52:23;2.80;;;2.60;;
76115;SDS011;64847;45.778;12.802;2023-04-06T07:54:50;2.70;;;2.50;;
76115;SDS011;64847;45.778;12.802;2023-04-06T07:57:15;3.08;;;2.88;;
76115;SDS011;64847;45.778;12.802;2023-04-06T07:59:41;3.17;;;2.97;;
76115;SDS011;64847;45.778;12.802;2023-04-06T08:02:06;2.90;;;2.70;;
76115;SDS011;64847;45.778;12.802;2023-04-06T08:04:32;2.80;;;2.60;;
76115;SDS011;64847;45.778;12.802;2023-04-06T08:06:57;2.92;;;2.72;;
76115;SDS011;64847;45.778;12.802;2023-04-06T08:09:22;2.92;;;2.72;;
76115;SDS011;64847;45.778;12.802;2023-04-06T08:11:48;3.10;;;2.90;;
76115;SDS011;64847;45.778;12.802;2023-04-06T08:14:14;3.13;;;2.85;;
76115;SDS011;64847;45.778;12.802;2023-04-06T08:16:40;3.47;;;3.17;;
76115;SDS011;64847;45.778;12.802;2023-04-06T08:19:06;3.03;;;2.83;;
76115;SDS011;64847;45.778;12.802;2023-04-06T08:21:34;3.40;;;3.20;;
76115;SDS011;64847;45.778;12.802;2023-04-06T08:24:02;3.13;;;2.92;;
76115;SDS011;64847;45.778;12.802;2023-04-06T08:26:28;3.38;;;3.17;;
76115;SDS011;64847;45.778;12.802;2023-04-06T08:28:54;4.40;;;3.30;;
76115;SDS011;64847;45.778;12.802;2023-04-06T08:31:19;3.50;;;3.20;;
76115;SDS011;64847;45.778;12.802;2023-04-06T08:33:45;3.17;;;2.97;;
76115;SDS011;64847;45.778;12.802;2023-04-06T08:36:13;3.55;;;3.35;;
76115;SDS011;64847;45.778;12.802;2023-04-06T08:38:40;3.67;;;3.38;;
76115;SDS011;64847;45.778;12.802;2023-04-06T08:41:12;3.80;;;3.50;;
76115;SDS011;64847;45.778;12.802;2023-04-06T08:43:49;3.33;;;3.13;;
76115;SDS011;64847;45.778;12.802;2023-04-06T08:46:17;3.28;;;2.97;;
76115;SDS011;64847;45.778;12.802;2023-04-06T08:48:42;2.97;;;2.78;;
76115;SDS011;64847;45.778;12.802;2023-04-06T08:51:08;3.55;;;3.33;;
76115;SDS011;64847;45.778;12.802;2023-04-06T08:53:35;3.78;;;3.58;;
76115;SDS011;64847;45.778;12.802;2023-04-06T08:56:01;3.58;;;3.30;;
76115;SDS011;64847;45.778;12.802;2023-04-06T08:58:28;3.85;;;3.08;;
76115;SDS011;64847;45.778;12.802;2023-04-06T09:00:54;3.60;;;3.40;;
76115;SDS011;64847;45.778;12.802;2023-04-06T09:03:19;3.65;;;3.35;;
76115;SDS011;64847;45.778;12.802;2023-04-06T09:05:45;3.47;;;3.28;;
76115;SDS011;64847;45.778;12.802;2023-04-06T09:08:11;2.90;;;2.70;;
76115;SDS011;64847;45.778;12.802;2023-04-06T09:10:40;3.58;;;3.20;;
76115;SDS011;64847;45.778;12.802;2023-04-06T09:13:05;4.78;;;3.95;;
76115;SDS011;64847;45.778;12.802;2023-04-06T09:15:31;3.97;;;3.75;;
76115;SDS011;64847;45.778;12.802;2023-04-06T09:17:57;4.43;;;4.05;;
76115;SDS011;64847;45.778;12.802;2023-04-06T09:20:23;4.10;;;3.90;;
76115;SDS011;64847;45.778;12.802;2023-04-06T09:22:51;5.47;;;3.92;;
76115;SDS011;64847;45.778;12.802;2023-04-06T09:25:20;3.83;;;3.53;;
76115;SDS011;64847;45.778;12.802;2023-04-06T09:27:48;3.78;;;3.58;;
76115;SDS011;64847;45.778;12.802;2023-04-06T09:30:15;4.20;;;3.90;;
76115;SDS011;64847;45.778;12.802;2023-04-06T09:32:48;4.90;;;4.50;;
76115;SDS011;64847;45.778;12.802;2023-04-06T09:35:14;4.20;;;3.83;;
76115;SDS011;64847;45.778;12.802;2023-04-06T09:37:40;3.90;;;3.63;;
76115;SDS011;64847;45.778;12.802;2023-04-06T09:40:07;4.63;;;4.22;;
76115;SDS011;64847;45.778;12.802;2023-04-06T09:42:33;3.65;;;3.45;;
76115;SDS011;64847;45.778;12.802;2023-04-06T09:45:00;3.95;;;3.65;;
76115;SDS011;64847;45.778;12.802;2023-04-06T09:47:28;4.90;;;4.38;;
76115;SDS011;64847;45.778;12.802;2023-04-06T09:49:56;4.40;;;4.00;;
76115;SDS011;64847;45.778;12.802;2023-04-06T09:52:26;5.00;;;4.60;;
76115;SDS011;64847;45.778;12.802;2023-04-06T09:54:52;5.78;;;4.55;;
76115;SDS011;64847;45.778;12.802;2023-04-06T09:57:32;4.93;;;4.43;;
76115;SDS011;64847;45.778;12.802;2023-04-06T10:00:03;4.82;;;4.53;;
76115;SDS011;64847;45.778;12.802;2023-04-06T10:07:49;4.45;;;4.15;;
76115;SDS011;64847;45.778;12.802;2023-04-06T10:10:16;4.43;;;4.05;;
76115;SDS011;64847;45.778;12.802;2023-04-06T10:12:41;4.15;;;3.85;;
76115;SDS011;64847;45.778;12.802;2023-04-06T10:15:08;3.67;;;3.45;;
76115;SDS011;64847;45.778;12.802;2023-04-06T10:17:35;4.50;;;4.10;;
76115;SDS011;64847;45.778;12.802;2023-04-06T10:20:05;4.95;;;4.55;;
76115;SDS011;64847;45.778;12.802;2023-04-06T10:25:07;4.10;;;3.72;;
76115;SDS011;64847;45.778;12.802;2023-04-06T10:27:33;4.50;;;4.10;;
76115;SDS011;64847;45.778;12.802;2023-04-06T10:30:02;4.43;;;4.13;;
76115;SDS011;64847;45.778;12.802;2023-04-06T10:35:35;4.32;;;4.00;;
76115;SDS011;64847;45.778;12.802;2023-04-06T10:38:02;4.40;;;4.10;;
76115;SDS011;64847;45.778;12.802;2023-04-06T10:40:28;4.53;;;4.18;;
76115;SDS011;64847;45.778;12.802;2023-04-06T10:43:06;4.07;;;3.85;;
76115;SDS011;64847;45.778;12.802;2023-04-06T10:45:35;4.03;;;3.70;;
76115;SDS011;64847;45.778;12.802;2023-04-06T10:48:04;4.25;;;4.00;;
76115;SDS011;64847;45.778;12.802;2023-04-06T10:50:41;4.10;;;3.80;;
76115;SDS011;64847;45.778;12.802;2023-04-06T10:53:26;3.90;;;3.60;;
76115;SDS011;64847;45.778;12.802;2023-04-06T10:55:54;4.82;;;4.53;;
76115;SDS011;64847;45.778;12.802;2023-04-06T10:58:24;4.93;;;4.50;;
76115;SDS011;64847;45.778;12.802;2023-04-06T11:00:50;4.60;;;4.30;;
76115;SDS011;64847;45.778;12.802;2023-04-06T11:03:16;5.03;;;4.25;;
76115;SDS011;64847;45.778;12.802;2023-04-06T11:05:48;4.70;;;4.38;;
76115;SDS011;64847;45.778;12.802;2023-04-06T11:08:27;5.40;;;5.00;;
76115;SDS011;64847;45.778;12.802;2023-04-06T11:13:58;4.97;;;4.35;;
76115;SDS011;64847;45.778;12.802;2023-04-06T11:18:54;4.43;;;4.13;;
76115;SDS011;64847;45.778;12.802;2023-04-06T11:24:30;5.90;;;5.28;;
76115;SDS011;64847;45.778;12.802;2023-04-06T11:26:50;6.35;;;5.80;;
76115;SDS011;64847;45.778;12.802;2023-04-06T11:29:22;5.78;;;5.25;;
76115;SDS011;64847;45.778;12.802;2023-04-06T11:31:50;5.47;;;5.07;;
76115;SDS011;64847;45.778;12.802;2023-04-06T11:34:20;4.72;;;4.32;;
76115;SDS011;64847;45.778;12.802;2023-04-06T11:36:48;5.00;;;4.60;;
76115;SDS011;64847;45.778;12.802;2023-04-06T11:39:21;4.50;;;4.10;;
76115;SDS011;64847;45.778;12.802;2023-04-06T11:42:07;5.03;;;4.72;;
76115;SDS011;64847;45.778;12.802;2023-04-06T11:47:05;5.85;;;5.45;;
76115;SDS011;64847;45.778;12.802;2023-04-06T11:49:33;5.45;;;5.05;;
76115;SDS011;64847;45.778;12.802;2023-04-06T11:52:00;4.32;;;4.05;;
76115;SDS011;64847;45.778;12.802;2023-04-06T11:54:32;4.57;;;4.18;;
76115;SDS011;64847;45.778;12.802;2023-04-06T11:56:58;5.30;;;4.78;;
76115;SDS011;64847;45.778;12.802;2023-04-06T11:59:23;5.63;;;5.22;;
76115;SDS011;64847;45.778;12.802;2023-04-06T12:01:49;5.22;;;4.82;;
76115;SDS011;64847;45.778;12.802;2023-04-06T12:04:15;5.68;;;5.28;;
76115;SDS011;64847;45.778;12.802;2023-04-06T12:06:40;5.45;;;5.05;;
76115;SDS011;64847;45.778;12.802;2023-04-06T12:09:06;5.63;;;5.22;;
76115;SDS011;64847;45.778;12.802;2023-04-06T12:11:31;5.60;;;5.30;;
76115;SDS011;64847;45.778;12.802;2023-04-06T12:13:57;5.28;;;4.88;;
76115;SDS011;64847;45.778;12.802;2023-04-06T12:16:24;5.45;;;4.95;;
76115;SDS011;64847;45.778;12.802;2023-04-06T12:18:49;5.93;;;5.43;;
76115;SDS011;64847;45.778;12.802;2023-04-06T12:21:16;6.07;;;5.38;;
76115;SDS011;64847;45.778;12.802;2023-04-06T12:23:41;5.10;;;4.70;;
76115;SDS011;64847;45.778;12.802;2023-04-06T12:26:06;5.63;;;5.22;;
76115;SDS011;64847;45.778;12.802;2023-04-06T12:28:32;6.15;;;5.68;;
76115;SDS011;64847;45.778;12.802;2023-04-06T12:30:57;6.15;;;5.65;;
76115;SDS011;64847;45.778;12.802;2023-04-06T12:33:23;6.28;;;5.75;;
76115;SDS011;64847;45.778;12.802;2023-04-06T12:35:48;7.13;;;6.63;;
76115;SDS011;64847;45.778;12.802;2023-04-06T12:38:13;6.13;;;5.63;;
76115;SDS011;64847;45.778;12.802;2023-04-06T12:40:39;6.18;;;5.68;;
76115;SDS011;64847;45.778;12.802;2023-04-06T12:43:04;6.90;;;6.35;;
76115;SDS011;64847;45.778;12.802;2023-04-06T12:45:31;6.78;;;6.20;;
76115;SDS011;64847;45.778;12.802;2023-04-06T12:47:57;6.78;;;5.75;;
76115;SDS011;64847;45.778;12.802;2023-04-06T12:50:23;5.90;;;5.35;;
76115;SDS011;64847;45.778;12.802;2023-04-06T12:52:48;5.28;;;4.95;;
76115;SDS011;64847;45.778;12.802;2023-04-06T12:55:14;5.47;;;5.10;;
76115;SDS011;64847;45.778;12.802;2023-04-06T12:57:40;5.20;;;4.85;;
76115;SDS011;64847;45.778;12.802;2023-04-06T13:00:06;5.15;;;4.75;;
76115;SDS011;64847;45.778;12.802;2023-04-06T13:02:32;5.32;;;4.93;;
76115;SDS011;64847;45.778;12.802;2023-04-06T13:04:58;5.88;;;5.38;;
76115;SDS011;64847;45.778;12.802;2023-04-06T13:07:23;10.93;;;5.70;;
76115;SDS011;64847;45.778;12.802;2023-04-06T13:09:48;6.38;;;5.88;;
76115;SDS011;64847;45.778;12.802;2023-04-06T13:12:14;6.70;;;5.55;;
76115;SDS011;64847;45.778;12.802;2023-04-06T13:14:40;5.97;;;5.53;;
76115;SDS011;64847;45.778;12.802;2023-04-06T13:17:06;6.80;;;6.20;;
76115;SDS011;64847;45.778;12.802;2023-04-06T13:19:32;6.22;;;5.68;;
76115;SDS011;64847;45.778;12.802;2023-04-06T13:21:57;6.10;;;5.70;;
76115;SDS011;64847;45.778;12.802;2023-04-06T13:24:23;6.28;;;5.78;;
76115;SDS011;64847;45.778;12.802;2023-04-06T13:26:49;6.93;;;6.22;;
76115;SDS011;64847;45.778;12.802;2023-04-06T13:29:14;5.72;;;5.32;;
76115;SDS011;64847;45.778;12.802;2023-04-06T13:31:40;6.72;;;6.20;;
76115;SDS011;64847;45.778;12.802;2023-04-06T13:34:06;6.75;;;5.88;;
76115;SDS011;64847;45.778;12.802;2023-04-06T13:36:31;6.07;;;5.57;;
76115;SDS011;64847;45.778;12.802;2023-04-06T13:38:57;5.75;;;5.20;;
76115;SDS011;64847;45.778;12.802;2023-04-06T13:41:24;6.10;;;5.60;;
76115;SDS011;64847;45.778;12.802;2023-04-06T13:43:50;5.88;;;5.47;;
76115;SDS011;64847;45.778;12.802;2023-04-06T13:46:16;6.38;;;5.82;;
76115;SDS011;64847;45.778;12.802;2023-04-06T13:48:42;5.90;;;5.40;;
76115;SDS011;64847;45.778;12.802;2023-04-06T13:51:11;6.20;;;5.75;;
76115;SDS011;64847;45.778;12.802;2023-04-06T13:53:37;6.75;;;6.05;;
76115;SDS011;64847;45.778;12.802;2023-04-06T13:56:03;5.38;;;4.97;;
76115;SDS011;64847;45.778;12.802;2023-04-06T13:58:28;6.35;;;5.80;;
76115;SDS011;64847;45.778;12.802;2023-04-06T14:00:54;6.78;;;5.75;;
76115;SDS011;64847;45.778;12.802;2023-04-06T14:03:20;5.60;;;5.10;;
76115;SDS011;64847;45.778;12.802;2023-04-06T14:05:47;5.70;;;5.20;;
76115;SDS011;64847;45.778;12.802;2023-04-06T14:08:12;5.50;;;5.00;;
76115;SDS011;64847;45.778;12.802;2023-04-06T14:10:38;6.03;;;5.50;;
76115;SDS011;64847;45.778;12.802;2023-04-06T14:13:05;5.57;;;5.07;;
76115;SDS011;64847;45.778;12.802;2023-04-06T14:15:31;5.63;;;4.90;;
76115;SDS011;64847;45.778;12.802;2023-04-06T14:17:56;5.83;;;5.33;;
76115;SDS011;64847;45.778;12.802;2023-04-06T14:20:22;6.03;;;5.17;;
76115;SDS011;64847;45.778;12.802;2023-04-06T14:22:47;5.20;;;4.70;;
76115;SDS011;64847;45.778;12.802;2023-04-06T14:25:14;5.67;;;4.80;;
76115;SDS011;64847;45.778;12.802;2023-04-06T14:27:41;6.07;;;5.37;;
76115;SDS011;64847;45.778;12.802;2023-04-06T14:30:07;5.93;;;5.30;;
76115;SDS011;64847;45.778;12.802;2023-04-06T14:32:33;5.50;;;5.00;;
76115;SDS011;64847;45.778;12.802;2023-04-06T14:34:59;6.10;;;5.27;;
76115;SDS011;64847;45.778;12.802;2023-04-06T14:37:24;6.53;;;5.33;;
76115;SDS011;64847;45.778;12.802;2023-04-06T14:39:50;6.10;;;4.97;;
76115;SDS011;64847;45.778;12.802;2023-04-06T14:42:15;5.70;;;5.20;;
76115;SDS011;64847;45.778;12.802;2023-04-06T14:44:41;5.60;;;5.10;;
76115;SDS011;64847;45.778;12.802;2023-04-06T14:47:09;5.40;;;4.97;;
76115;SDS011;64847;45.778;12.802;2023-04-06T14:49:35;5.70;;;5.20;;